Time;durP1;ratioP1;P1;durP2;ratioP2;P2;SDS_P1;SDS_P2;PMS_P1;PMS_P2;Temp;Humidity;BMP_temperature;BMP_pressure;BME280_temperature;BME280_humidity;BME280_pressure;Samples;Min_cycle;Max_cycle;Signal;HPM_P1;HPM_P2
2024/02/08 00:01:03;;;;;;;4.53;2.25;;;21.00;72.70;;;;;;4970306;28;20215;-59
2024/02/08 00:03:39;;;;;;;3.10;2.30;;;21.00;73.00;;;;;;4969941;28;20319;-62
2024/02/08 00:06:06;;;;;;;2.33;1.90;;;21.40;72.50;;;;;;4972090;28;20212;-62
2024/02/08 00:08:36;;;;;;;4.65;2.67;;;21.00;71.70;;;;;;4973272;28;20222;-58
2024/02/08 00:11:06;;;;;;;3.40;2.67;;;20.80;71.80;;;;;;4972463;28;20279;-63
2024/02/08 00:13:34;;;;;;;3.15;2.45;;;21.00;71.60;;;;;;4972024;28;20201;-62
2024/02/08 00:16:01;;;;;;;2.90;2.00;;;21.00;71.80;;;;;;4973983;28;20208;-60
2024/02/08 00:18:36;;;;;;;4.65;2.35;;;21.00;71.70;;;;;;4967703;28;20193;-64
2024/02/08 00:21:02;;;;;;;2.95;1.83;;;21.00;71.60;;;;;;4971589;28;20200;-64
2024/02/08 00:23:29;;;;;;;3.13;1.92;;;21.00;71.80;;;;;;4972031;28;20204;-58
2024/02/08 00:25:58;;;;;;;3.05;2.55;;;21.00;71.50;;;;;;4971265;28;20197;-56
2024/02/08 00:28:25;;;;;;;2.50;2.25;;;21.40;72.00;;;;;;4966950;28;20225;-64
2024/02/08 00:30:53;;;;;;;2.45;1.92;;;21.00;71.50;;;;;;4970738;28;20202;-60
2024/02/08 00:33:20;;;;;;;3.08;2.28;;;20.80;71.20;;;;;;4969705;28;20271;-63
2024/02/08 00:35:48;;;;;;;2.47;1.70;;;20.70;71.10;;;;;;4969141;28;20197;-61
2024/02/08 00:38:14;;;;;;;4.18;2.60;;;20.90;71.20;;;;;;4971904;28;21132;-58
2024/02/08 00:40:46;;;;;;;2.50;1.90;;;20.80;71.50;;;;;;4973898;28;20197;-60
2024/02/08 00:43:12;;;;;;;2.38;1.92;;;20.90;71.30;;;;;;4971004;28;20209;-59
2024/02/08 00:45:41;;;;;;;3.28;1.92;;;21.40;72.20;;;;;;4967500;28;21125;-63
2024/02/08 00:48:09;;;;;;;2.05;1.80;;;20.90;71.70;;;;;;4968970;28;20247;-61
2024/02/08 00:50:37;;;;;;;4.50;2.00;;;20.90;71.80;;;;;;4968322;28;20752;-57
2024/02/08 00:53:05;;;;;;;3.35;2.35;;;20.90;72.00;;;;;;4970516;28;20543;-58
2024/02/08 00:55:35;;;;;;;3.67;2.25;;;20.90;72.00;;;;;;4970689;28;20205;-65
2024/02/08 00:58:11;;;;;;;2.40;2.05;;;20.90;72.00;;;;;;4971131;28;20200;-58
2024/02/08 01:00:40;;;;;;;3.40;2.35;;;20.90;71.80;;;;;;4966769;28;20209;-61
2024/02/08 01:03:10;;;;;;;2.37;1.70;;;20.80;72.00;;;;;;4962722;28;20209;-63
2024/02/08 01:05:37;;;;;;;4.13;2.75;;;20.90;72.10;;;;;;4969906;28;20476;-61
2024/02/08 01:08:08;;;;;;;2.35;1.88;;;20.90;72.10;;;;;;4968123;28;20221;-63
2024/02/08 01:10:36;;;;;;;2.42;1.80;;;20.90;72.10;;;;;;4967541;28;20700;-59
2024/02/08 01:13:11;;;;;;;2.50;1.80;;;20.90;72.20;;;;;;4967588;28;20205;-60
2024/02/08 01:15:38;;;;;;;4.32;2.10;;;20.90;72.20;;;;;;4967243;28;20231;-57
2024/02/08 01:18:05;;;;;;;4.20;1.90;;;20.90;71.90;;;;;;4963577;28;20208;-59
2024/02/08 01:20:33;;;;;;;2.38;2.10;;;20.90;72.00;;;;;;4959289;28;20471;-60
2024/02/08 01:23:04;;;;;;;3.60;1.75;;;20.80;71.90;;;;;;4968984;28;20201;-60
2024/02/08 01:25:31;;;;;;;1.90;1.52;;;20.90;71.90;;;;;;4972556;28;20205;-60
2024/02/08 01:28:00;;;;;;;2.85;2.33;;;20.90;72.00;;;;;;4971822;28;20271;-61
2024/02/08 01:30:27;;;;;;;2.00;1.80;;;20.70;71.60;;;;;;4968379;28;20203;-59
2024/02/08 01:32:55;;;;;;;2.47;1.85;;;20.90;72.00;;;;;;4966628;28;20216;-60
2024/02/08 01:35:23;;;;;;;2.63;1.90;;;20.80;71.90;;;;;;4969608;28;20236;-60
2024/02/08 01:37:53;;;;;;;1.63;1.52;;;20.70;71.50;;;;;;4969513;28;20673;-60
2024/02/08 01:40:22;;;;;;;1.90;1.80;;;20.80;72.00;;;;;;4967533;28;20201;-61
2024/02/08 01:42:49;;;;;;;2.45;1.85;;;21.20;72.40;;;;;;4966652;28;20830;-60
2024/02/08 01:45:30;;;;;;;2.70;1.63;;;20.80;71.90;;;;;;4969953;28;20209;-58
2024/02/08 01:48:01;;;;;;;2.47;1.80;;;20.90;72.00;;;;;;4966608;28;20857;-59
2024/02/08 01:50:30;;;;;;;1.90;1.63;;;20.80;72.00;;;;;;4969798;28;20212;-59
2024/02/08 01:53:00;;;;;;;1.90;1.67;;;20.80;72.00;;;;;;4970004;28;20593;-62
2024/02/08 01:55:32;;;;;;;2.63;1.83;;;20.80;71.80;;;;;;4970809;28;20201;-61
2024/02/08 01:58:01;;;;;;;2.50;1.60;;;21.30;72.40;;;;;;4967229;28;20276;-59
2024/02/08 02:00:29;;;;;;;2.38;1.40;;;20.80;71.70;;;;;;4965938;28;20714;-58
2024/02/08 02:02:58;;;;;;;2.22;2.03;;;20.80;71.80;;;;;;4967837;28;20212;-60
2024/02/08 02:05:27;;;;;;;2.20;1.80;;;20.60;71.40;;;;;;4968298;28;20202;-59
2024/02/08 02:07:54;;;;;;;2.75;1.90;;;20.80;71.90;;;;;;4971257;28;20623;-64
2024/02/08 02:10:30;;;;;;;2.30;1.73;;;20.70;71.80;;;;;;4967965;28;20208;-57
2024/02/08 02:13:00;;;;;;;1.80;1.58;;;20.70;71.70;;;;;;4965064;28;20207;-58
2024/02/08 02:15:31;;;;;;;4.05;1.55;;;20.80;71.70;;;;;;4968576;28;20228;-60
2024/02/08 02:18:07;;;;;;;2.22;1.65;;;20.80;71.80;;;;;;4967781;28;21575;-58
2024/02/08 02:20:34;;;;;;;1.98;1.55;;;20.80;71.80;;;;;;4969387;28;20236;-59
2024/02/08 02:23:04;;;;;;;3.50;2.20;;;20.60;71.60;;;;;;4966521;28;20224;-62
2024/02/08 02:25:32;;;;;;;1.70;1.30;;;20.80;71.70;;;;;;4967154;28;20222;-61
2024/02/08 02:28:00;;;;;;;2.38;1.40;;;20.80;72.00;;;;;;4967565;28;20276;-58
2024/02/08 02:30:29;;;;;;;3.35;1.80;;;20.80;71.80;;;;;;4967008;28;20201;-61
2024/02/08 02:32:59;;;;;;;1.92;1.65;;;21.00;72.10;;;;;;4969032;28;20546;-60
2024/02/08 02:35:28;;;;;;;1.75;1.65;;;20.70;71.70;;;;;;4970300;28;20553;-59
2024/02/08 02:37:58;;;;;;;2.17;1.58;;;21.20;72.40;;;;;;4967024;28;20201;-65
2024/02/08 02:40:28;;;;;;;1.75;1.65;;;20.80;71.80;;;;;;4968645;28;20193;-60
2024/02/08 02:43:09;;;;;;;1.42;1.30;;;20.70;71.80;;;;;;4965252;28;20252;-60
2024/02/08 02:45:40;;;;;;;1.75;1.58;;;20.70;71.60;;;;;;4969148;28;20204;-62
2024/02/08 02:48:07;;;;;;;3.08;1.65;;;20.90;71.90;;;;;;4964314;28;20213;-60
2024/02/08 02:50:40;;;;;;;2.00;1.50;;;20.70;71.70;;;;;;4970261;28;20233;-63
2024/02/08 02:53:07;;;;;;;2.20;1.63;;;21.00;72.00;;;;;;4968937;28;20617;-57
2024/02/08 02:55:37;;;;;;;1.75;1.60;;;21.00;72.10;;;;;;4963830;28;20739;-57
2024/02/08 02:58:04;;;;;;;1.63;1.30;;;20.70;71.80;;;;;;4965598;28;20208;-62
2024/02/08 03:00:34;;;;;;;2.80;1.63;;;20.70;71.70;;;;;;4965983;28;20209;-58
2024/02/08 03:03:06;;;;;;;2.60;2.00;;;20.70;71.60;;;;;;4967615;28;20238;-63
2024/02/08 03:05:35;;;;;;;1.48;1.20;;;20.70;71.70;;;;;;4969516;28;20201;-60
2024/02/08 03:08:05;;;;;;;1.95;1.52;;;20.60;71.40;;;;;;4969048;28;20228;-61
2024/02/08 03:10:38;;;;;;;1.88;1.38;;;20.80;71.70;;;;;;4968941;28;20204;-59
2024/02/08 03:13:07;;;;;;;2.30;1.40;;;20.70;71.40;;;;;;4958550;28;20264;-60
2024/02/08 03:15:36;;;;;;;1.88;1.60;;;20.70;71.80;;;;;;4964482;28;20320;-61
2024/02/08 03:18:07;;;;;;;3.75;2.20;;;20.60;71.60;;;;;;4968884;28;20205;-61
2024/02/08 03:20:35;;;;;;;2.58;1.80;;;20.70;71.60;;;;;;4970876;28;20216;-59
2024/02/08 03:23:04;;;;;;;2.70;1.75;;;20.70;71.70;;;;;;4968545;28;20213;-62
2024/02/08 03:25:33;;;;;;;2.88;2.55;;;20.70;71.60;;;;;;4969212;28;20201;-65
2024/02/08 03:28:04;;;;;;;2.22;1.48;;;20.70;71.60;;;;;;4963736;28;20713;-60
2024/02/08 03:30:31;;;;;;;4.90;1.65;;;20.60;71.40;;;;;;4970602;28;20222;-58
2024/02/08 03:32:59;;;;;;;2.03;1.67;;;20.60;71.40;;;;;;4968688;28;20206;-60
2024/02/08 03:35:28;;;;;;;1.87;1.43;;;21.00;71.80;;;;;;4961348;28;20212;-61
2024/02/08 03:37:55;;;;;;;3.22;1.70;;;20.70;71.60;;;;;;4968941;28;20559;-64
2024/02/08 03:40:22;;;;;;;1.63;1.30;;;20.60;71.20;;;;;;4970898;28;20208;-59
2024/02/08 03:42:50;;;;;;;1.70;1.50;;;20.70;71.50;;;;;;4972114;28;20754;-64
2024/02/08 03:45:23;;;;;;;2.25;2.00;;;20.70;71.60;;;;;;4970686;28;20201;-60
2024/02/08 03:47:50;;;;;;;1.90;1.55;;;20.90;71.80;;;;;;4971603;28;20228;-59
2024/02/08 03:50:17;;;;;;;1.80;1.23;;;20.70;71.70;;;;;;4968428;28;20207;-61
2024/02/08 03:52:44;;;;;;;2.10;1.40;;;20.60;71.40;;;;;;4972518;28;20236;-64
2024/02/08 03:55:16;;;;;;;2.08;1.83;;;20.70;71.60;;;;;;4973113;28;20197;-62
2024/02/08 03:57:45;;;;;;;1.23;1.10;;;20.70;71.50;;;;;;4973016;28;20286;-61
2024/02/08 04:00:17;;;;;;;1.50;1.30;;;20.70;71.50;;;;;;4970260;28;20209;-58
2024/02/08 04:02:47;;;;;;;1.60;1.20;;;20.70;71.30;;;;;;4971797;28;20720;-61
2024/02/08 04:05:26;;;;;;;1.90;1.38;;;20.70;71.50;;;;;;4969194;28;20205;-59
2024/02/08 04:07:59;;;;;;;1.85;1.48;;;21.20;72.00;;;;;;4971517;28;20220;-60
2024/02/08 04:53:30;;;;;;;1.80;1.50;;;20.70;71.40;;;;;;4970616;28;20649;-59
2024/02/08 04:54:55;;;;;;;1.77;1.40;;;20.60;71.00;;;;;;4972282;28;21238;-60
2024/02/08 04:57:25;;;;;;;2.15;1.27;;;20.60;71.20;;;;;;4964973;28;20288;-61
2024/02/08 04:59:51;;;;;;;1.50;1.30;;;20.60;71.20;;;;;;4969320;28;20223;-64
2024/02/08 05:02:18;;;;;;;1.70;1.60;;;20.60;71.10;;;;;;4967604;28;20197;-61
2024/02/08 05:04:48;;;;;;;1.40;1.20;;;20.80;71.40;;;;;;4966998;28;20204;-63
2024/02/08 05:07:26;;;;;;;1.52;1.10;;;20.60;70.90;;;;;;4967008;28;20917;-60
2024/02/08 05:09:53;;;;;;;1.65;1.30;;;20.60;71.20;;;;;;4963823;28;20256;-61
2024/02/08 05:12:20;;;;;;;2.08;1.30;;;20.60;71.10;;;;;;4964652;28;20197;-63
2024/02/08 05:14:47;;;;;;;2.00;1.50;;;20.50;71.00;;;;;;4963427;28;20197;-58
2024/02/08 05:17:14;;;;;;;2.33;1.45;;;20.50;71.00;;;;;;4966457;28;20205;-59
2024/02/08 05:19:44;;;;;;;2.20;1.48;;;20.60;71.20;;;;;;4971965;28;20201;-58
2024/02/08 05:22:16;;;;;;;1.80;1.20;;;20.60;71.20;;;;;;4967784;28;20201;-61
2024/02/08 05:24:46;;;;;;;1.60;1.30;;;20.60;71.20;;;;;;4970707;28;20205;-59
2024/02/08 05:27:15;;;;;;;1.30;1.20;;;20.50;71.00;;;;;;4968662;28;20673;-59
2024/02/08 05:29:46;;;;;;;2.17;1.75;;;20.60;71.20;;;;;;4970199;28;20232;-57
2024/02/08 05:32:13;;;;;;;1.60;1.30;;;20.70;71.20;;;;;;4965979;28;20201;-60
2024/02/08 05:34:40;;;;;;;1.65;1.20;;;20.40;70.90;;;;;;4968199;28;20208;-61
2024/02/08 05:37:08;;;;;;;2.00;1.35;;;20.60;71.30;;;;;;4972419;28;20295;-62
2024/02/08 05:39:36;;;;;;;2.22;1.45;;;20.40;70.80;;;;;;4970933;28;20733;-59
2024/02/08 05:42:05;;;;;;;1.70;1.33;;;20.60;71.20;;;;;;4966365;28;20197;-60
2024/02/08 05:44:32;;;;;;;1.60;1.42;;;20.60;71.00;;;;;;4969285;28;20439;-63
2024/02/08 05:47:05;;;;;;;2.30;1.30;;;20.60;71.20;;;;;;4967552;28;20205;-58
2024/02/08 05:49:36;;;;;;;1.80;1.50;;;20.60;71.00;;;;;;4968145;28;20280;-61
2024/02/08 05:52:06;;;;;;;1.50;1.25;;;20.40;70.70;;;;;;4972975;28;20263;-58
2024/02/08 05:54:36;;;;;;;1.77;1.25;;;20.60;71.00;;;;;;4969069;28;20288;-58
2024/02/08 05:57:06;;;;;;;1.75;1.50;;;21.00;71.50;;;;;;4970747;28;20193;-63
2024/02/08 05:59:44;;;;;;;1.38;1.27;;;20.60;71.00;;;;;;4971839;28;21006;-59
2024/02/08 06:02:22;;;;;;;1.42;1.10;;;20.60;70.90;;;;;;4963571;28;20201;-60
2024/02/08 06:04:59;;;;;;;1.30;1.10;;;20.50;71.20;;;;;;4965649;28;20189;-63
2024/02/08 06:07:29;;;;;;;4.50;1.17;;;20.60;71.80;;;;;;4970286;28;20197;-62
2024/02/08 06:10:13;;;;;;;2.08;1.60;;;20.60;71.90;;;;;;4963817;28;20284;-59
2024/02/08 06:12:43;;;;;;;4.07;1.40;;;20.60;72.00;;;;;;4963783;28;20201;-60
2024/02/08 06:15:33;;;;;;;1.80;1.00;;;20.50;72.10;;;;;;4965728;28;20208;-58
2024/02/08 06:18:04;;;;;;;1.10;1.00;;;20.50;72.30;;;;;;4968363;28;21082;-61
2024/02/08 06:20:36;;;;;;;1.23;1.00;;;20.60;72.60;;;;;;4962334;28;20196;-60
2024/02/08 06:23:16;;;;;;;1.42;1.10;;;20.60;72.80;;;;;;4969499;28;20310;-61
2024/02/08 06:26:27;;;;;;;1.45;1.10;;;20.70;72.90;;;;;;4968835;28;20200;-59
2024/02/08 06:28:53;;;;;;;1.13;1.00;;;20.70;73.00;;;;;;4969950;28;20971;-60
2024/02/08 06:31:29;;;;;;;2.10;1.60;;;20.60;72.90;;;;;;4958021;28;20197;-60
2024/02/08 06:34:24;;;;;;;1.17;1.00;;;21.20;74.30;;;;;;4968258;28;20196;-57
2024/02/08 06:36:58;;;;;;;1.92;1.40;;;21.20;73.70;;;;;;4967411;28;20900;-59
2024/02/08 06:39:29;;;;;;;1.40;1.30;;;20.70;73.20;;;;;;4964621;28;20209;-65
2024/02/08 06:42:07;;;;;;;1.45;1.17;;;21.40;74.10;;;;;;4967210;28;20235;-67
2024/02/08 06:44:53;;;;;;;1.40;1.13;;;20.70;73.20;;;;;;4950425;28;20217;-64
2024/02/08 06:47:29;;;;;;;1.30;1.00;;;20.90;73.30;;;;;;4966490;28;20198;-58
2024/02/08 07:39:54;;;;;;;6.00;1.67;;;21.30;72.00;;;;;;4929313;28;20462;-67
2024/02/08 07:42:29;;;;;;;2.53;1.80;;;21.40;72.40;;;;;;4956737;28;20459;-66
2024/02/08 07:45:05;;;;;;;1.80;1.27;;;21.30;72.50;;;;;;4975342;28;20951;-66
2024/02/08 07:47:37;;;;;;;1.97;1.43;;;21.30;72.00;;;;;;4972821;28;20532;-66
2024/02/08 07:50:11;;;;;;;1.90;1.70;;;21.50;71.90;;;;;;4973176;28;20480;-67
2024/02/08 07:52:45;;;;;;;2.80;1.70;;;21.50;72.00;;;;;;4973714;28;20590;-66
2024/02/08 07:55:26;;;;;;;2.20;1.60;;;21.60;71.80;;;;;;4973662;28;20522;-66
2024/02/08 07:58:07;;;;;;;1.57;1.27;;;21.60;71.70;;;;;;4969438;28;20472;-68
2024/02/08 08:00:42;;;;;;;2.20;1.90;;;21.60;71.40;;;;;;4964672;28;20468;-67
2024/02/08 08:03:15;;;;;;;1.83;1.07;;;21.50;71.20;;;;;;4970906;28;20460;-66
2024/02/08 08:05:55;;;;;;;1.90;1.30;;;21.50;71.10;;;;;;4973284;28;20469;-66
2024/02/08 08:08:28;;;;;;;3.57;1.50;;;21.70;71.10;;;;;;4971897;28;21374;-67
2024/02/08 08:11:02;;;;;;;1.50;1.30;;;21.60;70.90;;;;;;4974156;28;21354;-67
2024/02/08 08:19:08;;;;;;;1.70;1.20;;;21.70;70.70;;;;;;4968485;28;20887;-67
2024/02/08 08:24:25;;;;;;;1.80;1.40;;;21.60;70.60;;;;;;4962762;28;20463;-68
2024/02/08 08:27:06;;;;;;;1.83;1.37;;;21.70;70.50;;;;;;4968182;28;20456;-67
2024/02/08 08:29:42;;;;;;;1.90;1.43;;;21.60;70.30;;;;;;4972158;28;20531;-67
2024/02/08 08:37:44;;;;;;;2.47;1.80;;;21.70;70.30;;;;;;4972484;28;21312;-66
2024/02/08 08:40:25;;;;;;;2.03;1.57;;;21.60;70.10;;;;;;4971409;28;20476;-66
2024/02/08 08:42:54;;;;;;;2.30;1.88;;;21.60;70.10;;;;;;4968226;28;20460;-66
2024/02/08 08:45:26;;;;;;;1.90;1.63;;;21.70;69.90;;;;;;4969036;28;20216;-67
2024/02/08 08:48:00;;;;;;;3.03;1.80;;;21.50;69.60;;;;;;4959172;28;20467;-68
2024/02/08 08:50:31;;;;;;;2.20;1.90;;;21.30;69.70;;;;;;4970032;28;20531;-67
2024/02/08 08:53:07;;;;;;;2.27;1.57;;;21.40;69.80;;;;;;4966846;28;20614;-66
2024/02/08 08:55:48;;;;;;;2.00;1.80;;;21.50;70.40;;;;;;4972468;28;20967;-66
2024/02/08 08:58:14;;;;;;;2.23;1.73;;;21.90;70.40;;;;;;4971443;28;20467;-65
2024/02/08 09:00:46;;;;;;;2.73;1.70;;;21.30;70.70;;;;;;4971570;28;21191;-66
2024/02/08 09:03:26;;;;;;;2.20;1.67;;;21.30;70.00;;;;;;4972956;28;20460;-66
2024/02/08 09:05:54;;;;;;;2.73;2.17;;;21.30;69.80;;;;;;4971773;28;20461;-66
2024/02/08 09:08:22;;;;;;;2.17;1.63;;;21.70;70.30;;;;;;4972312;28;20895;-65
2024/02/08 09:10:51;;;;;;;1.97;1.80;;;21.40;69.70;;;;;;4970708;28;20476;-66
2024/02/08 09:13:19;;;;;;;2.03;1.83;;;21.50;69.60;;;;;;4957449;28;20452;-65
2024/02/08 09:15:55;;;;;;;2.50;1.73;;;21.50;69.70;;;;;;4963877;28;20570;-67
2024/02/08 09:18:55;;;;;;;2.67;2.07;;;21.40;69.50;;;;;;4969315;28;20538;-66
2024/02/08 09:21:11;;;;;;;1.63;1.50;;;21.50;70.30;;;;;;4964368;28;20471;-66
2024/02/08 09:23:39;;;;;;;2.10;1.90;;;21.40;69.60;;;;;;4966125;28;20479;-65
2024/02/08 09:26:11;;;;;;;2.90;2.30;;;21.50;69.80;;;;;;4968123;28;20456;-64
2024/02/08 09:28:42;;;;;;;1.90;1.70;;;21.60;69.60;;;;;;4963915;28;21186;-65
2024/02/08 09:31:16;;;;;;;3.30;2.00;;;21.60;69.70;;;;;;4970661;28;20448;-66
2024/02/08 09:33:48;;;;;;;4.30;2.50;;;21.60;70.10;;;;;;4960095;28;20656;-65
2024/02/08 09:36:15;;;;;;;7.03;5.10;;;21.90;70.10;;;;;;4967072;28;20468;-67
2024/02/08 09:38:45;;;;;;;7.30;6.60;;;21.40;67.60;;;;;;4970677;28;21262;-67
2024/02/08 09:41:16;;;;;;;7.87;7.07;;;21.20;60.00;;;;;;4966805;28;20489;-66
2024/02/08 09:43:46;;;;;;;8.18;7.15;;;20.90;70.10;;;;;;4958660;28;20470;-65
2024/02/08 09:46:49;;;;;;;7.43;6.13;;;20.60;58.10;;;;;;4970421;28;20337;-65
2024/02/08 09:49:18;;;;;;;6.80;5.20;;;20.40;58.20;;;;;;4969476;28;20773;-65
2024/02/08 09:51:53;;;;;;;6.00;4.68;;;20.40;60.30;;;;;;4968085;28;20198;-64
2024/02/08 09:54:27;;;;;;;6.53;5.20;;;20.50;60.40;;;;;;4964011;28;20270;-65
2024/02/08 09:57:21;;;;;;;10.45;4.00;;;20.70;60.30;;;;;;4965758;28;20206;-64
2024/02/08 10:00:07;;;;;;;5.05;4.10;;;20.70;59.80;;;;;;4964432;28;20212;-66
2024/02/08 10:02:37;;;;;;;5.22;3.63;;;20.90;60.70;;;;;;4961909;28;20201;-64
2024/02/08 10:08:05;;;;;;;5.35;3.40;;;20.90;60.60;;;;;;4965045;28;21134;-64
2024/02/08 10:10:43;;;;;;;5.13;3.83;;;20.90;60.30;;;;;;4973294;28;20692;-64
2024/02/08 10:13:26;;;;;;;4.05;3.03;;;21.40;61.40;;;;;;4965615;28;20731;-65
2024/02/08 10:15:55;;;;;;;4.93;3.33;;;20.70;60.60;;;;;;4971224;28;20205;-65
2024/02/08 10:18:37;;;;;;;4.45;2.85;;;20.70;61.00;;;;;;4961388;28;20458;-65
2024/02/08 10:21:12;;;;;;;3.75;2.78;;;20.60;60.90;;;;;;4956087;28;20211;-65
2024/02/08 10:23:48;;;;;;;3.30;2.58;;;20.80;61.20;;;;;;4964776;28;20198;-65
2024/02/08 10:26:22;;;;;;;2.88;2.53;;;20.60;61.20;;;;;;4969839;28;20565;-65
2024/02/08 10:28:54;;;;;;;4.47;2.75;;;21.20;62.50;;;;;;4971528;28;21014;-64
2024/02/08 10:31:24;;;;;;;8.52;2.70;;;21.10;62.00;;;;;;4965597;28;20217;-65
2024/02/08 10:33:57;;;;;;;4.82;2.67;;;20.70;62.00;;;;;;4967410;28;20252;-64
2024/02/08 10:36:31;;;;;;;3.10;2.80;;;20.80;62.00;;;;;;4971885;28;20201;-64
2024/02/08 10:39:08;;;;;;;2.65;2.20;;;20.50;61.90;;;;;;4968367;28;20845;-65
2024/02/08 10:41:38;;;;;;;4.45;3.13;;;20.50;61.80;;;;;;4970383;28;20193;-65
2024/02/08 10:44:17;;;;;;;3.75;2.58;;;20.50;62.20;;;;;;4968529;28;20199;-65
2024/02/08 10:46:47;;;;;;;3.45;2.67;;;20.70;62.30;;;;;;4962965;28;20773;-62
2024/02/08 10:49:22;;;;;;;3.08;2.35;;;20.60;62.20;;;;;;4965265;28;20208;-64
2024/02/08 10:52:00;;;;;;;3.20;1.95;;;20.70;62.70;;;;;;4974824;28;20209;-65
2024/02/08 10:54:39;;;;;;;3.42;2.13;;;20.60;63.40;;;;;;4977587;28;20319;-64
2024/02/08 10:57:33;;;;;;;3.17;2.55;;;20.70;63.80;;;;;;4969991;28;20276;-64
2024/02/08 10:59:59;;;;;;;2.80;2.30;;;21.00;64.50;;;;;;4967565;28;20205;-65
2024/02/08 11:02:48;;;;;;;4.10;2.30;;;21.30;65.20;;;;;;4975221;28;20237;-64
2024/02/08 11:05:45;;;;;;;2.20;2.00;;;20.90;66.60;;;;;;4972949;28;20288;-65
2024/02/08 11:08:32;;;;;;;2.30;1.90;;;20.90;65.40;;;;;;4972742;28;20545;-64
2024/02/08 11:11:09;;;;;;;3.10;2.35;;;20.80;65.60;;;;;;4965780;28;20232;-65
2024/02/08 11:13:45;;;;;;;2.05;1.85;;;21.00;66.10;;;;;;4968134;28;20231;-63
2024/02/08 11:16:20;;;;;;;2.92;2.00;;;21.10;66.50;;;;;;4974124;28;20200;-64
2024/02/08 11:18:52;;;;;;;2.75;2.25;;;21.00;66.60;;;;;;4967386;28;20196;-65
2024/02/08 11:21:42;;;;;;;2.37;1.93;;;20.80;66.80;;;;;;4974143;28;20247;-64
2024/02/08 11:24:13;;;;;;;2.58;1.80;;;20.90;67.20;;;;;;4971901;28;20458;-64
2024/02/08 11:26:54;;;;;;;2.75;1.80;;;20.90;67.60;;;;;;4966409;28;20221;-65
2024/02/08 11:29:28;;;;;;;3.45;2.00;;;21.00;67.90;;;;;;4963133;28;20348;-65
2024/02/08 11:31:56;;;;;;;3.10;2.22;;;21.00;68.20;;;;;;4955740;28;20199;-66
2024/02/08 11:34:33;;;;;;;6.30;2.50;;;21.30;69.70;;;;;;4971370;28;20196;-66
2024/02/08 11:37:15;;;;;;;2.60;1.53;;;21.00;68.80;;;;;;4971587;28;20519;-65
2024/02/08 11:39:46;;;;;;;2.80;2.15;;;21.20;69.10;;;;;;4972872;28;21041;-62
2024/02/08 11:42:17;;;;;;;5.15;2.17;;;21.20;69.30;;;;;;4971059;28;20755;-65
2024/02/08 11:44:48;;;;;;;3.37;2.03;;;21.20;69.30;;;;;;4955973;28;20210;-65
2024/02/08 11:47:24;;;;;;;3.15;2.20;;;21.10;69.60;;;;;;4969489;28;20474;-65
2024/02/08 11:50:00;;;;;;;2.13;1.60;;;21.10;69.70;;;;;;4937074;28;20256;-66
2024/02/08 11:52:27;;;;;;;3.30;1.90;;;21.20;69.80;;;;;;4970738;28;20519;-61
2024/02/08 11:55:13;;;;;;;3.00;1.87;;;21.30;70.90;;;;;;4971489;28;20983;-66
2024/02/08 11:57:47;;;;;;;3.53;2.03;;;21.70;70.90;;;;;;4971143;28;20457;-61
2024/02/08 12:00:17;;;;;;;4.83;3.10;;;21.30;70.40;;;;;;4966143;28;20193;-63
2024/02/08 12:02:56;;;;;;;3.40;1.60;;;21.30;70.60;;;;;;4969695;28;20471;-64
2024/02/08 12:05:25;;;;;;;1.97;1.60;;;21.30;70.50;;;;;;4972831;28;20476;-63
2024/02/08 12:08:08;;;;;;;3.63;3.33;;;21.30;70.40;;;;;;4970570;28;20453;-70
2024/02/08 12:10:41;;;;;;;4.90;2.95;;;21.00;65.40;;;;;;4969593;28;20476;-64
2024/02/08 12:13:12;;;;;;;8.18;3.53;;;20.90;62.80;;;;;;4964809;28;20224;-65
2024/02/08 12:15:44;;;;;;;2.60;2.40;;;20.90;65.70;;;;;;4965493;28;20545;-64
2024/02/08 12:18:21;;;;;;;3.78;2.00;;;20.90;66.50;;;;;;4968438;28;20212;-64
2024/02/08 12:20:55;;;;;;;3.47;2.03;;;20.90;66.50;;;;;;4972016;28;20292;-65
2024/02/08 12:23:30;;;;;;;3.00;1.83;;;20.90;66.70;;;;;;4970767;28;20229;-64
2024/02/08 12:26:01;;;;;;;2.10;1.90;;;21.00;67.00;;;;;;4972940;28;20523;-64
2024/02/08 12:28:34;;;;;;;3.97;2.50;;;20.90;67.00;;;;;;4972140;28;20648;-65
2024/02/08 12:31:07;;;;;;;3.28;2.50;;;20.90;67.60;;;;;;4968367;28;20217;-64
2024/02/08 12:33:45;;;;;;;2.28;2.08;;;20.90;67.30;;;;;;4970196;28;20200;-64
2024/02/08 12:36:14;;;;;;;1.85;1.65;;;20.90;67.30;;;;;;4969510;28;20751;-64
2024/02/08 12:38:43;;;;;;;4.25;2.38;;;20.90;67.50;;;;;;4964823;28;20201;-65
2024/02/08 12:41:11;;;;;;;4.95;2.10;;;20.90;67.50;;;;;;4969888;28;20609;-64
2024/02/08 12:43:38;;;;;;;3.78;1.77;;;20.90;67.60;;;;;;4971347;28;20201;-63
2024/02/08 12:46:07;;;;;;;2.63;1.90;;;20.90;67.90;;;;;;4967924;28;20724;-67
2024/02/08 12:48:34;;;;;;;6.05;2.40;;;20.90;68.20;;;;;;4968166;28;20205;-67
2024/02/08 12:51:04;;;;;;;3.40;2.30;;;20.60;66.00;;;;;;4970061;28;20225;-67
2024/02/08 12:53:33;;;;;;;3.00;2.00;;;20.80;67.80;;;;;;4971551;28;20324;-66
2024/02/08 12:56:06;;;;;;;5.25;2.20;;;20.80;68.40;;;;;;4971544;28;20580;-65
2024/02/08 12:58:32;;;;;;;4.10;2.13;;;20.90;68.40;;;;;;4968774;28;20315;-65
2024/02/08 13:01:04;;;;;;;3.90;1.88;;;21.40;69.80;;;;;;4971756;28;20193;-65
2024/02/08 13:03:34;;;;;;;2.25;1.50;;;21.10;71.90;;;;;;4964105;28;20760;-65
2024/02/08 13:06:04;;;;;;;5.50;1.80;;;20.90;72.80;;;;;;4973180;28;20205;-66
2024/02/08 13:08:33;;;;;;;1.75;1.63;;;20.90;73.70;;;;;;4970238;28;20464;-67
2024/02/08 13:11:02;;;;;;;2.15;1.60;;;21.20;73.70;;;;;;4973132;28;20229;-65
2024/02/08 13:13:29;;;;;;;2.60;1.57;;;20.90;73.90;;;;;;4965592;28;20216;-66
2024/02/08 13:16:05;;;;;;;1.90;1.63;;;20.90;73.80;;;;;;4967624;28;20460;-65
2024/02/08 13:18:38;;;;;;;2.67;1.83;;;20.90;72.80;;;;;;4964511;28;20197;-66
2024/02/08 13:21:09;;;;;;;5.60;1.50;;;20.90;72.80;;;;;;4966666;28;20210;-64
2024/02/08 13:23:38;;;;;;;1.77;1.42;;;20.90;72.80;;;;;;4970592;28;20202;-68
2024/02/08 13:26:06;;;;;;;2.10;1.90;;;21.00;73.10;;;;;;4964538;28;20284;-63
2024/02/08 13:28:33;;;;;;;2.40;1.77;;;20.90;74.00;;;;;;4962783;28;20775;-67
2024/02/08 13:31:05;;;;;;;3.50;1.50;;;21.20;73.60;;;;;;4963321;28;20627;-67
2024/02/08 13:33:36;;;;;;;2.33;2.13;;;20.90;72.60;;;;;;4964361;28;20926;-68
2024/02/08 13:36:08;;;;;;;2.40;1.38;;;20.90;72.50;;;;;;4965320;28;20200;-67
2024/02/08 13:38:38;;;;;;;1.80;1.52;;;20.80;72.20;;;;;;4967245;28;20324;-66
2024/02/08 13:41:09;;;;;;;1.90;1.50;;;20.90;72.70;;;;;;4968702;28;20215;-67
2024/02/08 13:43:39;;;;;;;1.35;1.23;;;20.80;72.60;;;;;;4970192;28;20181;-68
2024/02/08 13:46:06;;;;;;;2.23;1.70;;;20.90;73.30;;;;;;4968828;28;20580;-67
2024/02/08 13:48:39;;;;;;;2.75;1.50;;;20.80;72.60;;;;;;4968979;28;20476;-68
2024/02/08 13:51:07;;;;;;;2.17;1.80;;;20.80;72.30;;;;;;4969565;28;20695;-68
2024/02/08 13:53:35;;;;;;;3.28;1.75;;;20.80;72.70;;;;;;4961374;28;20201;-68
2024/02/08 13:56:05;;;;;;;3.85;1.58;;;21.50;72.80;;;;;;4972570;28;20193;-68
2024/02/08 13:58:35;;;;;;;1.48;1.38;;;20.90;72.70;;;;;;4964454;28;20225;-68
2024/02/08 14:01:02;;;;;;;1.75;1.55;;;20.70;71.90;;;;;;4949630;28;20208;-69
2024/02/08 14:03:34;;;;;;;4.93;2.20;;;20.90;71.60;;;;;;4952473;28;20736;-67
2024/02/08 14:06:02;;;;;;;2.72;1.98;;;20.80;71.60;;;;;;4969569;28;20198;-67
2024/02/08 14:08:31;;;;;;;2.50;1.20;;;20.90;71.20;;;;;;4954430;28;20198;-67
2024/02/08 14:10:59;;;;;;;1.83;1.50;;;20.80;71.50;;;;;;4966034;28;20991;-68
2024/02/08 14:13:34;;;;;;;3.17;1.63;;;20.80;70.90;;;;;;4958453;28;20201;-69
2024/02/08 14:16:13;;;;;;;1.92;1.35;;;20.90;71.00;;;;;;4958170;28;20212;-67
2024/02/08 14:18:48;;;;;;;2.08;1.75;;;20.90;71.20;;;;;;4971869;28;20193;-66
2024/02/08 14:21:24;;;;;;;1.80;1.70;;;20.70;71.60;;;;;;4967702;28;20208;-68
2024/02/08 14:23:58;;;;;;;3.83;1.55;;;20.70;72.30;;;;;;4970158;28;21214;-68
2024/02/08 14:26:40;;;;;;;1.52;1.42;;;20.60;71.60;;;;;;4966295;28;20197;-67
2024/02/08 14:29:08;;;;;;;1.85;1.42;;;20.70;72.90;;;;;;4966690;28;20397;-67
2024/02/08 14:31:38;;;;;;;3.70;1.63;;;20.30;70.90;;;;;;4963816;28;20316;-68
2024/02/08 14:34:08;;;;;;;2.75;1.48;;;21.30;71.00;;;;;;4964227;28;20220;-68
2024/02/08 14:36:41;;;;;;;3.50;1.90;;;20.70;70.40;;;;;;4962209;28;20943;-68
2024/02/08 14:39:26;;;;;;;2.25;1.30;;;21.30;71.20;;;;;;4965160;28;20468;-68
2024/02/08 14:41:55;;;;;;;1.95;1.63;;;20.80;70.40;;;;;;4970613;28;20408;-68
2024/02/08 14:44:31;;;;;;;1.70;1.40;;;20.80;70.10;;;;;;4962640;28;20194;-69
2024/02/08 14:47:06;;;;;;;3.25;1.27;;;20.60;70.30;;;;;;4965385;28;20569;-68
2024/02/08 14:49:54;;;;;;;2.42;1.65;;;20.70;70.60;;;;;;4969604;28;20347;-68
2024/02/08 14:52:26;;;;;;;1.73;1.33;;;21.30;72.30;;;;;;4970750;28;20228;-68
2024/02/08 14:54:58;;;;;;;1.60;1.40;;;20.70;70.60;;;;;;4973004;28;20201;-67
2024/02/08 14:57:38;;;;;;;1.92;1.40;;;20.70;70.80;;;;;;4964020;28;20213;-68
2024/02/08 15:02:55;;;;;;;2.08;1.25;;;20.80;70.40;;;;;;4971885;28;20235;-68
2024/02/08 15:05:40;;;;;;;3.20;1.40;;;20.80;70.40;;;;;;4971821;28;20200;-69